createdAt,value
2023-04-05T00:00:46.083Z,2.40
2023-04-05T00:03:12.690Z,2.80
2023-04-05T00:05:39.347Z,2.90
2023-04-05T00:08:18.194Z,3.05
2023-04-05T00:10:44.488Z,2.90
2023-04-05T00:13:10.807Z,2.60
2023-04-05T00:15:37.156Z,3.28
2023-04-05T00:18:03.780Z,3.00
2023-04-05T00:20:30.287Z,2.80
2023-04-05T00:22:56.592Z,2.42
2023-04-05T00:25:23.129Z,2.78
2023-04-05T00:27:49.458Z,2.42
2023-04-05T00:30:21.213Z,2.42
2023-04-05T00:32:49.898Z,2.72
2023-04-05T00:35:17.158Z,2.60
2023-04-05T00:37:43.667Z,2.45
2023-04-05T00:40:10.503Z,2.90
2023-04-05T00:42:36.904Z,2.83
2023-04-05T00:45:03.452Z,2.50
2023-04-05T00:47:29.857Z,2.70
2023-04-05T00:49:56.236Z,2.80
2023-04-05T00:52:23.278Z,2.38
2023-04-05T00:54:51.606Z,2.90
2023-04-05T00:57:18.275Z,3.10
2023-04-05T00:59:44.663Z,2.85
2023-04-05T01:02:17.977Z,2.80
2023-04-05T01:04:50.464Z,2.63
2023-04-05T01:07:28.957Z,2.20
2023-04-05T01:10:00.192Z,2.90
2023-04-05T01:12:33.122Z,3.03
2023-04-05T01:15:01.050Z,2.72
2023-04-05T01:17:29.889Z,3.00
2023-04-05T01:20:00.270Z,3.83
2023-04-05T01:22:50.312Z,3.03
2023-04-05T01:25:54.428Z,3.33
2023-04-05T01:28:45.712Z,3.00
2023-04-05T01:34:06.912Z,2.95
2023-04-05T01:36:49.846Z,2.75
2023-04-05T01:39:20.117Z,2.78
2023-04-05T01:41:46.845Z,2.60
2023-04-05T01:44:13.144Z,3.05
2023-04-05T01:46:39.545Z,3.05
2023-04-05T01:49:05.963Z,3.00
2023-04-05T01:51:33.309Z,2.80
2023-04-05T01:53:59.824Z,2.83
2023-04-05T01:56:27.298Z,3.03
2023-04-05T01:58:53.601Z,2.75
2023-04-05T02:01:20.092Z,3.00
2023-04-05T02:03:46.612Z,2.90
2023-04-05T02:06:13.034Z,3.47
2023-04-05T02:08:39.339Z,3.25
2023-04-05T02:11:05.699Z,2.78
2023-04-05T02:13:32.052Z,2.85
2023-04-05T02:15:58.365Z,3.17
2023-04-05T02:18:31.157Z,3.00
2023-04-05T02:21:05.576Z,3.25
2023-04-05T02:23:32.931Z,3.33
2023-04-05T02:25:59.783Z,3.70
2023-04-05T02:28:26.832Z,3.95
2023-04-05T02:30:53.200Z,3.15
2023-04-05T02:33:19.656Z,3.33
2023-04-05T02:35:49.451Z,3.40
2023-04-05T02:38:15.776Z,3.25
2023-04-05T02:40:42.353Z,3.25
2023-04-05T02:43:09.151Z,3.53
2023-04-05T02:45:36.176Z,3.88
2023-04-05T02:48:02.538Z,3.67
2023-04-05T02:50:28.855Z,4.03
2023-04-05T02:52:55.329Z,3.47
2023-04-05T02:55:21.661Z,3.72
2023-04-05T02:57:48.004Z,3.13
2023-04-05T03:00:14.875Z,3.92
2023-04-05T03:02:41.340Z,3.38
2023-04-05T03:05:09.698Z,3.42
2023-04-05T03:07:36.433Z,3.75
2023-04-05T03:10:03.228Z,2.75
2023-04-05T03:12:29.529Z,3.67
2023-04-05T03:14:55.887Z,3.60
2023-04-05T03:17:22.241Z,3.17
2023-04-05T03:19:48.573Z,3.50
2023-04-05T03:22:14.884Z,3.80
2023-04-05T03:24:42.473Z,3.80
2023-04-05T03:27:08.898Z,3.42
2023-04-05T03:29:35.555Z,3.55
2023-04-05T03:32:01.935Z,3.50
2023-04-05T03:34:28.801Z,3.38
2023-04-05T03:36:55.677Z,3.72
2023-04-05T03:39:22.049Z,3.03
2023-04-05T03:41:48.544Z,3.60
2023-04-05T03:44:17.686Z,3.28
2023-04-05T03:46:45.126Z,3.08
2023-04-05T03:49:11.775Z,3.72
2023-04-05T03:51:38.067Z,3.42
2023-04-05T03:54:04.595Z,3.47
2023-04-05T03:56:32.565Z,3.30
2023-04-05T03:59:01.167Z,3.92
2023-04-05T04:01:27.540Z,3.67
2023-04-05T04:03:53.838Z,3.35
2023-04-05T04:06:20.333Z,3.72
2023-04-05T04:08:46.667Z,3.90
2023-04-05T04:11:13.085Z,3.78
2023-04-05T04:13:39.438Z,3.50
2023-04-05T04:16:06.116Z,4.18
2023-04-05T04:18:32.554Z,4.30
2023-04-05T04:21:06.574Z,4.15
2023-04-05T04:23:34.314Z,4.40
2023-04-05T04:26:01.523Z,4.70
2023-04-05T04:28:29.133Z,3.30
2023-04-05T04:30:55.447Z,4.18
2023-04-05T04:33:21.877Z,3.55
2023-04-05T04:35:48.262Z,3.75
2023-04-05T04:38:20.618Z,3.55
2023-04-05T04:40:47.021Z,4.18
2023-04-05T04:43:17.263Z,3.88
2023-04-05T04:45:48.143Z,3.70
2023-04-05T04:48:16.339Z,4.10
2023-04-05T04:50:44.092Z,3.90
2023-04-05T04:53:11.024Z,4.13
2023-04-05T04:55:42.353Z,3.63
2023-04-05T04:58:11.610Z,4.18
2023-04-05T05:00:45.415Z,3.92
2023-04-05T05:03:12.329Z,3.65
2023-04-05T05:05:46.665Z,3.92
2023-04-05T05:08:13.643Z,3.75
2023-04-05T05:10:40.743Z,3.80
2023-04-05T05:13:07.357Z,4.18
2023-04-05T05:15:33.719Z,3.75
2023-04-05T05:18:00.449Z,3.83
2023-04-05T05:20:29.935Z,3.78
2023-04-05T05:22:56.241Z,4.03
2023-04-05T05:25:22.700Z,4.00
2023-04-05T05:27:50.812Z,4.45
2023-04-05T05:30:17.981Z,4.00
2023-04-05T05:32:44.343Z,4.30
2023-04-05T05:35:10.770Z,3.58
2023-04-05T05:37:37.352Z,3.88
2023-04-05T05:40:07.150Z,3.75
2023-04-05T05:42:33.964Z,4.20
2023-04-05T05:45:04.472Z,4.13
2023-04-05T05:47:31.064Z,4.43
2023-04-05T05:49:57.847Z,4.32
2023-04-05T05:52:24.578Z,3.95
2023-04-05T05:54:51.440Z,3.80
2023-04-05T05:57:17.761Z,4.28
2023-04-05T05:59:44.069Z,3.80
2023-04-05T06:02:10.569Z,4.53
2023-04-05T06:04:37.852Z,4.20
2023-04-05T06:07:04.451Z,4.20
2023-04-05T06:09:30.790Z,4.75
2023-04-05T06:11:57.518Z,5.10
2023-04-05T06:14:25.227Z,5.60
2023-04-05T06:16:52.035Z,5.30
2023-04-05T06:19:18.383Z,5.40
2023-04-05T06:21:44.699Z,5.03
2023-04-05T06:24:11.027Z,8.25
2023-04-05T06:26:37.348Z,7.68
2023-04-05T06:29:03.723Z,7.22
2023-04-05T06:31:37.793Z,5.65
2023-04-05T06:34:07.526Z,11.43
2023-04-05T06:36:34.525Z,9.50
2023-04-05T06:39:01.481Z,5.22
2023-04-05T06:41:28.083Z,9.70
2023-04-05T06:43:54.562Z,9.80
2023-04-05T06:46:21.105Z,7.50
2023-04-05T06:48:48.297Z,4.60
2023-04-05T06:51:14.679Z,5.07
2023-04-05T06:53:41.265Z,4.32
2023-04-05T06:56:07.984Z,4.78
2023-04-05T06:58:34.593Z,5.25
2023-04-05T07:01:01.621Z,6.30
2023-04-05T07:03:28.665Z,5.68
2023-04-05T07:05:57.255Z,7.15
2023-04-05T07:08:23.815Z,8.25
2023-04-05T07:10:51.779Z,6.60
2023-04-05T07:13:19.356Z,5.63
2023-04-05T07:15:46.130Z,4.13
2023-04-05T07:18:13.168Z,4.00
2023-04-05T07:20:39.706Z,4.30
2023-04-05T07:23:06.311Z,3.88
2023-04-05T07:25:33.237Z,4.82
2023-04-05T07:28:00.055Z,4.45
2023-04-05T07:30:27.604Z,4.28
2023-04-05T07:32:54.613Z,4.32
2023-04-05T07:35:21.028Z,3.30
2023-04-05T07:37:47.365Z,4.90
2023-04-05T07:40:13.766Z,4.85
2023-04-05T07:42:40.320Z,3.78
2023-04-05T07:45:07.341Z,4.57
2023-04-05T07:47:34.832Z,4.35
2023-04-05T07:50:01.740Z,3.95
2023-04-05T07:52:28.090Z,3.67
2023-04-05T07:54:55.521Z,3.83
2023-04-05T07:57:21.850Z,2.92
2023-04-05T07:59:50.842Z,3.28
2023-04-05T08:02:17.276Z,2.85
2023-04-05T08:04:43.738Z,2.90
2023-04-05T08:07:10.115Z,2.58
2023-04-05T08:09:36.564Z,2.60
2023-04-05T08:12:03.305Z,2.42
2023-04-05T08:14:29.663Z,3.05
2023-04-05T08:16:55.984Z,2.60
2023-04-05T08:19:22.322Z,2.72
2023-04-05T08:21:48.651Z,2.75
2023-04-05T08:24:15.071Z,2.53
2023-04-05T08:26:41.793Z,2.60
2023-04-05T08:29:08.124Z,3.35
2023-04-05T08:31:34.472Z,3.35
2023-04-05T08:34:00.808Z,3.30
2023-04-05T08:36:27.146Z,2.15
2023-04-05T08:38:53.490Z,2.50
2023-04-05T08:41:23.780Z,2.50
2023-04-05T08:43:58.458Z,3.57
2023-04-05T08:46:25.812Z,3.97
2023-04-05T08:48:52.628Z,4.20
2023-04-05T08:51:21.259Z,3.33
2023-04-05T08:53:48.330Z,3.47
2023-04-05T08:56:25.254Z,3.88
2023-04-05T08:59:11.061Z,3.50
2023-04-05T09:01:41.508Z,2.58
2023-04-05T09:04:14.223Z,2.60
2023-04-05T09:06:40.721Z,2.30
2023-04-05T09:09:08.088Z,2.35
2023-04-05T09:11:35.468Z,2.85
2023-04-05T09:14:05.598Z,2.60
2023-04-05T09:16:40.596Z,3.22
2023-04-05T09:19:08.161Z,2.65
2023-04-05T09:22:03.345Z,3.15
2023-04-05T09:24:34.761Z,2.35
2023-04-05T09:27:11.063Z,2.75
2023-04-05T09:29:39.065Z,2.92
2023-04-05T09:32:07.174Z,2.72
2023-04-05T09:34:36.570Z,2.97
2023-04-05T09:37:12.623Z,3.05
2023-04-05T09:39:39.123Z,3.28
2023-04-05T09:42:16.347Z,2.53
2023-04-05T09:44:53.022Z,2.58
2023-04-05T09:47:21.686Z,3.28
2023-04-05T09:49:48.208Z,2.55
2023-04-05T09:52:19.260Z,2.80
2023-04-05T09:54:45.796Z,2.28
2023-04-05T09:57:12.401Z,3.28
2023-04-05T09:59:41.846Z,2.78
2023-04-05T10:02:11.033Z,2.75
2023-04-05T10:04:55.370Z,2.60
2023-04-05T10:07:22.124Z,3.03
2023-04-05T10:09:48.740Z,3.08
2023-04-05T10:12:28.366Z,2.60
2023-04-05T10:14:57.691Z,2.90
2023-04-05T10:17:30.818Z,3.05
2023-04-05T10:20:12.318Z,3.40
2023-04-05T10:23:01.099Z,2.38
2023-04-05T10:25:42.453Z,2.88
2023-04-05T10:28:22.765Z,3.00
2023-04-05T10:30:53.016Z,2.78
2023-04-05T10:33:31.667Z,3.17
2023-04-05T10:36:38.974Z,3.00
2023-04-05T10:39:42.550Z,3.22
2023-04-05T10:42:27.969Z,3.28
2023-04-05T10:45:02.384Z,3.13
2023-04-05T10:47:31.957Z,3.25
2023-04-05T10:50:03.719Z,3.30
2023-04-05T10:52:30.901Z,3.78
2023-04-05T10:54:59.750Z,2.83
2023-04-05T10:57:26.956Z,3.40
2023-04-05T10:59:53.898Z,2.67
2023-04-05T11:02:20.802Z,2.95
2023-04-05T11:04:55.514Z,3.45
2023-04-05T11:07:22.086Z,3.22
2023-04-05T11:10:15.913Z,2.30
2023-04-05T11:12:48.083Z,3.13
2023-04-05T11:15:33.041Z,3.45
2023-04-05T11:18:03.276Z,3.13
2023-04-05T11:20:46.300Z,3.07
2023-04-05T11:23:18.697Z,3.25
2023-04-05T11:25:54.192Z,3.35
2023-04-05T11:28:24.662Z,3.65
2023-04-05T11:30:53.921Z,3.05
2023-04-05T11:33:56.785Z,3.38
2023-04-05T11:36:32.577Z,3.10
2023-04-05T11:39:17.724Z,3.80
2023-04-05T11:42:09.812Z,2.97
2023-04-05T11:44:51.362Z,2.75
2023-04-05T11:47:21.524Z,3.42
2023-04-05T11:49:51.905Z,2.97
2023-04-05T11:52:21.137Z,3.20
2023-04-05T11:54:48.859Z,2.92
2023-04-05T11:57:19.617Z,3.20
2023-04-05T11:59:46.616Z,3.85
2023-04-05T12:02:13.053Z,3.45
2023-04-05T12:04:40.353Z,3.30
2023-04-05T12:07:20.270Z,3.38
2023-04-05T12:09:59.628Z,3.63
2023-04-05T12:12:25.938Z,2.88
2023-04-05T12:14:57.879Z,4.07
2023-04-05T12:17:41.705Z,3.75
2023-04-05T12:20:09.502Z,3.30
2023-04-05T12:22:38.195Z,3.45
2023-04-05T12:25:05.280Z,3.08
2023-04-05T12:27:31.689Z,3.20
2023-04-05T12:30:11.257Z,3.47
2023-04-05T12:32:47.916Z,3.72
2023-04-05T12:35:19.847Z,4.32
2023-04-05T12:37:46.684Z,3.25
2023-04-05T12:40:13.920Z,3.90
2023-04-05T12:42:40.971Z,3.75
2023-04-05T12:45:12.688Z,3.17
2023-04-05T12:47:51.066Z,3.35
2023-04-05T12:50:19.055Z,3.55
2023-04-05T12:53:04.727Z,3.33
2023-04-05T12:55:31.527Z,3.30
2023-04-05T12:58:02.142Z,3.40
2023-04-05T13:00:29.905Z,2.53
2023-04-05T13:02:59.589Z,2.67
2023-04-05T13:05:28.498Z,3.38
2023-04-05T13:07:55.287Z,3.75
2023-04-05T13:10:23.365Z,3.47
2023-04-05T13:12:50.076Z,3.80
2023-04-05T13:15:17.165Z,3.90
2023-04-05T13:17:49.861Z,3.50
2023-04-05T13:20:17.751Z,3.92
2023-04-05T13:22:45.249Z,4.10
2023-04-05T13:25:11.655Z,3.85
2023-04-05T13:27:38.087Z,3.78
2023-04-05T13:30:04.926Z,3.40
2023-04-05T13:32:31.299Z,3.78
2023-04-05T13:34:57.685Z,3.95
2023-04-05T13:37:24.050Z,3.60
2023-04-05T13:39:50.515Z,3.40
2023-04-05T13:42:17.076Z,3.05
2023-04-05T13:44:43.515Z,4.13
2023-04-05T13:47:10.093Z,3.90
2023-04-05T13:49:36.523Z,3.90
2023-04-05T13:52:02.940Z,4.10
2023-04-05T13:54:29.274Z,3.65
2023-04-05T13:56:56.958Z,4.10
2023-04-05T13:59:23.344Z,4.28
2023-04-05T14:01:49.905Z,3.30
2023-04-05T14:04:16.486Z,4.15
2023-04-05T14:06:43.469Z,3.50
2023-04-05T14:09:10.377Z,3.38
2023-04-05T14:11:37.204Z,3.20
2023-04-05T14:14:03.489Z,3.55
2023-04-05T14:16:30.124Z,3.53
2023-04-05T14:18:56.621Z,3.28
2023-04-05T14:21:24.758Z,3.60
2023-04-05T14:23:56.584Z,3.42
2023-04-05T14:26:27.432Z,3.97
2023-04-05T14:28:54.075Z,3.58
2023-04-05T14:31:20.700Z,3.40
2023-04-05T14:33:47.119Z,3.67
2023-04-05T14:36:13.487Z,3.75
2023-04-05T14:38:39.958Z,3.42
2023-04-05T14:41:06.365Z,3.50
2023-04-05T14:43:32.796Z,3.63
2023-04-05T14:45:59.178Z,3.60
2023-04-05T14:48:25.839Z,3.45
2023-04-05T14:50:52.231Z,3.65
2023-04-05T14:53:18.795Z,3.80
2023-04-05T14:55:45.219Z,3.42
2023-04-05T14:58:13.788Z,3.33
2023-04-05T15:00:41.046Z,3.20
2023-04-05T15:03:07.872Z,3.70
2023-04-05T15:05:34.396Z,3.50
2023-04-05T15:08:00.809Z,3.55
2023-04-05T15:10:27.206Z,3.53
2023-04-05T15:12:53.542Z,3.70
2023-04-05T15:15:19.974Z,3.65
2023-04-05T15:17:46.483Z,3.67
2023-04-05T15:20:12.977Z,3.42
2023-04-05T15:22:42.666Z,3.53
2023-04-05T15:25:09.891Z,3.57
2023-04-05T15:27:36.278Z,3.42
2023-04-05T15:30:02.838Z,3.72
2023-04-05T15:32:33.505Z,4.03
2023-04-05T15:35:01.005Z,3.70
2023-04-05T15:37:27.742Z,3.55
2023-04-05T15:39:54.321Z,3.50
2023-04-05T15:42:24.110Z,4.25
2023-04-05T15:44:51.031Z,3.60
2023-04-05T15:47:18.125Z,3.67
2023-04-05T15:49:44.608Z,3.83
2023-04-05T15:52:11.409Z,3.50
2023-04-05T15:54:37.977Z,3.80
2023-04-05T15:57:04.692Z,3.67
2023-04-05T15:59:31.116Z,3.92
2023-04-05T16:01:57.637Z,4.18
2023-04-05T16:04:24.636Z,4.45
2023-04-05T16:06:51.119Z,3.55
2023-04-05T16:09:17.603Z,3.88
2023-04-05T16:11:44.059Z,3.35
2023-04-05T16:14:11.508Z,3.08
2023-04-05T16:16:50.584Z,3.60
2023-04-05T16:19:23.124Z,3.67
2023-04-05T16:21:50.529Z,3.00
2023-04-05T16:24:17.002Z,3.90
2023-04-05T16:26:43.479Z,3.63
2023-04-05T16:29:09.944Z,3.40
2023-04-05T16:31:36.963Z,3.28
2023-04-05T16:34:03.478Z,3.58
2023-04-05T16:36:29.915Z,3.45
2023-04-05T16:38:56.453Z,3.85
2023-04-05T16:41:22.941Z,3.53
2023-04-05T16:43:49.399Z,3.65
2023-04-05T16:46:15.872Z,3.80
2023-04-05T16:48:42.409Z,3.58
2023-04-05T16:51:08.997Z,3.88
2023-04-05T16:53:35.409Z,3.83
2023-04-05T16:56:01.926Z,3.67
2023-04-05T16:58:28.474Z,4.32
2023-04-05T17:00:58.661Z,5.50
2023-04-05T17:03:25.688Z,4.68
2023-04-05T17:05:52.407Z,4.35
2023-04-05T17:08:18.844Z,3.50
2023-04-05T17:10:45.286Z,5.00
2023-04-05T17:13:11.652Z,4.80
2023-04-05T17:15:38.405Z,5.75
2023-04-05T17:18:05.786Z,3.92
2023-04-05T17:20:32.206Z,3.88
2023-04-05T17:22:58.765Z,3.92
2023-04-05T17:25:25.214Z,3.67
2023-04-05T17:27:51.604Z,4.07
2023-04-05T17:30:18.045Z,4.15
2023-04-05T17:32:44.560Z,3.60
2023-04-05T17:35:11.259Z,3.90
2023-04-05T17:37:37.701Z,3.65
2023-04-05T17:40:04.731Z,4.03
2023-04-05T17:42:31.356Z,3.60
2023-04-05T17:44:57.864Z,4.13
2023-04-05T17:47:24.348Z,3.78
2023-04-05T17:49:51.108Z,3.60
2023-04-05T17:52:17.603Z,4.18
2023-04-05T17:54:44.029Z,4.35
2023-04-05T17:57:15.411Z,3.95
2023-04-05T17:59:42.282Z,4.32
2023-04-05T18:02:12.448Z,4.30
2023-04-05T18:04:39.604Z,4.67
2023-04-05T18:07:06.196Z,4.10
2023-04-05T18:09:33.110Z,4.40
2023-04-05T18:12:00.121Z,5.03
2023-04-05T18:14:26.548Z,4.68
2023-04-05T18:16:53.113Z,4.47
2023-04-05T18:19:19.623Z,4.38
2023-04-05T18:21:46.216Z,3.90
2023-04-05T18:24:13.905Z,4.63
2023-04-05T18:26:40.341Z,3.80
2023-04-05T18:29:06.852Z,3.15
2023-04-05T18:31:33.376Z,3.40
2023-04-05T18:34:06.021Z,3.22
2023-04-05T18:36:32.638Z,3.90
2023-04-05T18:39:00.600Z,3.65
2023-04-05T18:41:27.090Z,3.50
2023-04-05T18:43:54.564Z,4.05
2023-04-05T18:46:22.701Z,3.80
2023-04-05T18:48:54.595Z,4.13
2023-04-05T18:51:22.293Z,4.13
2023-04-05T18:53:48.860Z,4.72
2023-04-05T18:56:15.408Z,4.38
2023-04-05T18:58:42.145Z,3.90
2023-04-05T19:01:14.599Z,4.47
2023-04-05T19:03:41.486Z,4.20
2023-04-05T19:06:07.903Z,4.65
2023-04-05T19:08:34.280Z,4.90
2023-04-05T19:11:00.807Z,4.80
2023-04-05T19:13:27.258Z,4.40
2023-04-05T19:15:53.679Z,4.38
2023-04-05T19:18:22.876Z,4.53
2023-04-05T19:20:53.294Z,4.28
2023-04-05T19:23:19.663Z,4.38
2023-04-05T19:25:46.265Z,4.22
2023-04-05T19:28:12.612Z,3.95
2023-04-05T19:30:40.372Z,4.18
2023-04-05T19:33:06.843Z,4.20
2023-04-05T19:35:33.353Z,3.80
2023-04-05T19:37:59.733Z,3.40
2023-04-05T19:40:26.848Z,3.55
2023-04-05T19:42:53.278Z,3.45
2023-04-05T19:45:27.021Z,3.70
2023-04-05T19:47:55.371Z,3.05
2023-04-05T19:50:57.309Z,3.22
2023-04-05T19:53:35.676Z,3.15
2023-04-05T19:56:02.883Z,3.25
2023-04-05T19:58:30.417Z,2.85
2023-04-05T20:00:56.857Z,3.13
2023-04-05T20:03:31.145Z,3.33
2023-04-05T20:06:02.805Z,3.17
2023-04-05T20:08:30.236Z,3.28
2023-04-05T20:10:57.100Z,3.20
2023-04-05T20:13:23.617Z,3.80
2023-04-05T20:15:50.160Z,3.20
2023-04-05T20:18:26.709Z,3.53
2023-04-05T20:20:54.649Z,3.30
2023-04-05T20:23:22.426Z,3.17
2023-04-05T20:25:50.811Z,3.38
2023-04-05T20:28:39.861Z,3.45
2023-04-05T20:31:11.767Z,3.40
2023-04-05T20:33:46.004Z,3.70
2023-04-05T20:36:13.768Z,3.60
2023-04-05T20:38:41.844Z,3.92
2023-04-05T20:41:11.586Z,3.22
2023-04-05T20:43:39.106Z,3.28
2023-04-05T20:46:06.657Z,3.42
2023-04-05T20:48:34.376Z,3.63
2023-04-05T20:51:03.205Z,3.83
2023-04-05T20:53:30.256Z,3.90
2023-04-05T20:55:56.986Z,3.22
2023-04-05T20:58:23.458Z,3.65
2023-04-05T21:00:49.831Z,3.58
2023-04-05T21:03:16.653Z,3.40
2023-04-05T21:05:43.116Z,3.15
2023-04-05T21:08:10.562Z,3.63
2023-04-05T21:10:37.473Z,3.58
2023-04-05T21:13:03.909Z,3.40
2023-04-05T21:15:34.444Z,3.10
2023-04-05T21:18:02.431Z,3.13
2023-04-05T21:20:29.008Z,3.40
2023-04-05T21:22:59.232Z,3.00
2023-04-05T21:25:25.989Z,2.90
2023-04-05T21:27:52.383Z,3.45
2023-04-05T21:30:18.877Z,3.47
2023-04-05T21:32:45.438Z,3.13
2023-04-05T21:35:11.898Z,3.67
2023-04-05T21:37:38.341Z,3.08
2023-04-05T21:40:05.368Z,3.15
2023-04-05T21:42:32.124Z,3.38
2023-04-05T21:44:58.677Z,3.40
2023-04-05T21:47:25.341Z,3.90
2023-04-05T21:49:52.737Z,3.08
2023-04-05T21:52:19.407Z,3.20
2023-04-05T21:54:46.098Z,3.63
2023-04-05T21:57:12.613Z,3.50
2023-04-05T21:59:39.008Z,3.58
2023-04-05T22:02:06.799Z,3.50
2023-04-05T22:04:33.538Z,3.50
2023-04-05T22:06:59.909Z,3.78
2023-04-05T22:09:27.955Z,3.72
2023-04-05T22:11:54.561Z,3.97
2023-04-05T22:14:20.994Z,4.22
2023-04-05T22:16:47.858Z,3.95
2023-04-05T22:19:14.492Z,4.10
2023-04-05T22:21:41.515Z,3.75
2023-04-05T22:24:09.032Z,4.20
2023-04-05T22:26:35.654Z,4.38
2023-04-05T22:29:03.034Z,4.22
2023-04-05T22:31:29.502Z,4.60
2023-04-05T22:33:56.209Z,4.00
2023-04-05T22:36:22.781Z,4.57
2023-04-05T22:38:49.167Z,4.07
2023-04-05T22:41:15.643Z,4.03
2023-04-05T22:43:42.102Z,3.92
2023-04-05T22:46:08.581Z,3.65
2023-04-05T22:48:35.040Z,3.70
2023-04-05T22:51:01.466Z,4.05
2023-04-05T22:53:28.416Z,3.88
2023-04-05T22:55:54.864Z,4.30
2023-04-05T22:58:22.424Z,4.28
2023-04-05T23:00:48.848Z,4.32
2023-04-05T23:03:15.342Z,4.75
2023-04-05T23:05:41.805Z,4.13
2023-04-05T23:08:10.255Z,4.28
2023-04-05T23:10:36.625Z,4.35
2023-04-05T23:13:03.051Z,4.25
2023-04-05T23:15:29.510Z,4.60
2023-04-05T23:17:56.087Z,4.90
2023-04-05T23:20:22.564Z,4.45
2023-04-05T23:22:48.970Z,4.70
2023-04-05T23:25:15.421Z,4.30
2023-04-05T23:27:41.782Z,3.95
2023-04-05T23:30:08.685Z,4.63
2023-04-05T23:32:35.193Z,3.72
2023-04-05T23:35:01.668Z,4.60
2023-04-05T23:37:28.028Z,4.10
2023-04-05T23:39:54.372Z,4.32
2023-04-05T23:42:20.777Z,4.50
2023-04-05T23:44:47.198Z,4.72
2023-04-05T23:47:13.568Z,4.28
2023-04-05T23:49:40.049Z,3.92
2023-04-05T23:52:06.602Z,4.50
2023-04-05T23:54:32.988Z,4.10
2023-04-05T23:56:59.362Z,4.05
2023-04-05T23:59:26.077Z,5.03
